Time;durP1;ratioP1;P1;durP2;ratioP2;P2;SDS_P1;SDS_P2;PMS_P1;PMS_P2;Temp;Humidity;BMP_temperature;BMP_pressure;BME280_temperature;BME280_humidity;BME280_pressure;Samples;Min_cycle;Max_cycle;Signal;HPM_P1;HPM_P2
2023/05/14 00:01:36;;;;;;;9.68;6.03;;;;;;;;;;5051452;28;20048;-75
2023/05/14 00:04:04;;;;;;;10.65;5.95;;;;;;;;;;5051425;28;20028;-74
2023/05/14 00:06:30;;;;;;;9.98;6.75;;;;;;;;;;5051514;28;20398;-73
2023/05/14 00:08:57;;;;;;;12.30;6.47;;;;;;;;;;5050599;28;20028;-75
2023/05/14 00:11:25;;;;;;;8.55;5.80;;;;;;;;;;5050812;28;20052;-73
2023/05/14 00:13:50;;;;;;;13.95;5.75;;;;;;;;;;5051753;28;20068;-73
2023/05/14 00:16:16;;;;;;;8.32;5.72;;;;;;;;;;5051321;28;20055;-73
2023/05/14 00:18:42;;;;;;;11.25;6.32;;;;;;;;;;5050897;28;20483;-74
2023/05/14 00:21:08;;;;;;;9.00;6.45;;;;;;;;;;5051318;28;20028;-74
2023/05/14 00:23:34;;;;;;;9.68;5.93;;;;;;;;;;5051139;28;20036;-74
2023/05/14 00:25:59;;;;;;;8.35;6.20;;;;;;;;;;5046521;28;20021;-74
2023/05/14 00:28:25;;;;;;;9.55;5.90;;;;;;;;;;5048558;28;20033;-74
2023/05/14 00:30:51;;;;;;;8.80;6.22;;;;;;;;;;5036723;28;20112;-72
2023/05/14 00:33:17;;;;;;;11.40;6.45;;;;;;;;;;5029837;28;20025;-72
2023/05/14 00:35:42;;;;;;;9.50;6.30;;;;;;;;;;5038048;28;20431;-73
2023/05/14 00:38:08;;;;;;;10.43;6.18;;;;;;;;;;5028545;28;20041;-73
2023/05/14 00:40:35;;;;;;;9.32;6.20;;;;;;;;;;5032246;28;20025;-73
2023/05/14 00:43:01;;;;;;;11.30;6.25;;;;;;;;;;5035436;28;20167;-74
2023/05/14 00:45:27;;;;;;;10.00;6.20;;;;;;;;;;5045471;28;20554;-73
2023/05/14 00:47:53;;;;;;;9.73;6.55;;;;;;;;;;5044703;28;20025;-72
2023/05/14 00:50:21;;;;;;;11.82;7.85;;;;;;;;;;5047286;28;20024;-74
2023/05/14 00:52:47;;;;;;;14.63;8.13;;;;;;;;;;5049441;28;20064;-74
2023/05/14 00:55:15;;;;;;;12.43;7.80;;;;;;;;;;5033744;28;20049;-72
2023/05/14 00:57:41;;;;;;;10.77;7.82;;;;;;;;;;5050863;28;20117;-72
2023/05/14 01:00:07;;;;;;;17.80;7.70;;;;;;;;;;5045739;28;20121;-72
2023/05/14 01:02:33;;;;;;;11.88;8.50;;;;;;;;;;5041080;28;20060;-72
2023/05/14 01:04:59;;;;;;;15.20;8.15;;;;;;;;;;5049456;28;20548;-72
2023/05/14 01:07:47;;;;;;;16.30;8.40;;;;;;;;;;5032587;28;20026;-74
2023/05/14 01:10:34;;;;;;;13.93;8.88;;;;;;;;;;5050397;28;20028;-73
2023/05/14 01:12:59;;;;;;;13.82;9.57;;;;;;;;;;5033063;28;20037;-73
2023/05/14 01:15:32;;;;;;;12.68;8.90;;;;;;;;;;5041107;28;20103;-73
2023/05/14 01:18:06;;;;;;;15.13;9.35;;;;;;;;;;5050299;28;20033;-73
2023/05/14 01:20:31;;;;;;;14.55;9.10;;;;;;;;;;5049119;28;20529;-73
2023/05/14 01:22:57;;;;;;;12.80;8.90;;;;;;;;;;5050431;28;20017;-73
2023/05/14 01:25:23;;;;;;;10.40;7.65;;;;;;;;;;5050500;28;20487;-73
2023/05/14 01:28:16;;;;;;;13.70;8.15;;;;;;;;;;5066442;28;20402;-73
2023/05/14 01:31:01;;;;;;;11.65;8.30;;;;;;;;;;5049054;28;20040;-73
2023/05/14 01:33:29;;;;;;;12.13;7.60;;;;;;;;;;5049304;28;20090;-73
2023/05/14 01:35:55;;;;;;;9.75;7.38;;;;;;;;;;5049696;28;20036;-73
2023/05/14 01:38:22;;;;;;;11.65;7.03;;;;;;;;;;5049075;28;20029;-73
2023/05/14 01:40:49;;;;;;;12.38;7.32;;;;;;;;;;5048005;28;20021;-73
2023/05/14 01:43:16;;;;;;;10.60;6.60;;;;;;;;;;5049286;28;20083;-73
2023/05/14 01:45:42;;;;;;;13.85;6.50;;;;;;;;;;5048500;28;20443;-73
2023/05/14 01:48:08;;;;;;;9.23;6.18;;;;;;;;;;5049811;28;20091;-74
2023/05/14 01:50:34;;;;;;;12.73;6.15;;;;;;;;;;5051267;28;20029;-74
2023/05/14 01:53:00;;;;;;;8.13;5.75;;;;;;;;;;5038916;28;20087;-72
2023/05/14 01:55:26;;;;;;;6.82;5.60;;;;;;;;;;5033345;28;20036;-73
2023/05/14 01:57:53;;;;;;;13.07;7.68;;;;;;;;;;5051365;28;20564;-73
2023/05/14 02:00:26;;;;;;;14.93;8.20;;;;;;;;;;5053016;28;20119;-71
2023/05/14 02:02:52;;;;;;;12.57;8.38;;;;;;;;;;5053720;28;20124;-72
2023/05/14 02:05:18;;;;;;;11.77;8.80;;;;;;;;;;5052726;28;20453;-72
2023/05/14 02:07:44;;;;;;;11.23;8.20;;;;;;;;;;5052324;28;20039;-72
2023/05/14 02:10:10;;;;;;;10.00;7.82;;;;;;;;;;5052249;28;20044;-72
2023/05/14 02:12:36;;;;;;;11.10;7.88;;;;;;;;;;5053541;28;20039;-72
2023/05/14 02:15:02;;;;;;;10.05;7.78;;;;;;;;;;5049219;28;20451;-72
2023/05/14 02:17:28;;;;;;;13.20;7.82;;;;;;;;;;5051131;28;20441;-72
2023/05/14 02:19:54;;;;;;;11.50;7.78;;;;;;;;;;5048790;28;20049;-73
2023/05/14 02:22:20;;;;;;;12.57;8.13;;;;;;;;;;5040512;28;20029;-74
2023/05/14 02:24:46;;;;;;;11.10;8.10;;;;;;;;;;5032525;28;20387;-73
2023/05/14 02:27:12;;;;;;;10.85;7.80;;;;;;;;;;5047446;28;20028;-73
2023/05/14 02:29:38;;;;;;;10.52;7.38;;;;;;;;;;5043566;28;20545;-74
2023/05/14 02:32:04;;;;;;;11.10;7.07;;;;;;;;;;5038049;28;20041;-73
2023/05/14 02:34:30;;;;;;;11.95;7.90;;;;;;;;;;5049865;28;20033;-73
2023/05/14 02:36:55;;;;;;;9.88;7.45;;;;;;;;;;5053020;28;20041;-73
2023/05/14 02:39:21;;;;;;;12.07;7.53;;;;;;;;;;5052995;28;20028;-74
2023/05/14 02:41:47;;;;;;;8.57;6.97;;;;;;;;;;5053277;28;20028;-73
2023/05/14 02:44:12;;;;;;;10.02;7.38;;;;;;;;;;5036661;28;20360;-73
2023/05/14 02:46:38;;;;;;;8.38;6.28;;;;;;;;;;5034248;28;20122;-73
2023/05/14 02:49:04;;;;;;;10.27;6.53;;;;;;;;;;5052865;28;20494;-74
2023/05/14 02:51:30;;;;;;;9.07;6.93;;;;;;;;;;5046837;28;20047;-74
2023/05/14 02:53:56;;;;;;;10.20;6.68;;;;;;;;;;5051715;28;20035;-73
2023/05/14 02:56:21;;;;;;;11.93;7.20;;;;;;;;;;5035512;28;20557;-74
2023/05/14 02:58:47;;;;;;;11.93;7.45;;;;;;;;;;5042665;28;20027;-74
2023/05/14 03:01:13;;;;;;;11.73;8.55;;;;;;;;;;5047023;28;20394;-73
2023/05/14 03:03:39;;;;;;;12.00;7.00;;;;;;;;;;5051216;28;20566;-73
2023/05/14 03:06:05;;;;;;;8.65;7.25;;;;;;;;;;5052668;28;20040;-73
2023/05/14 03:08:31;;;;;;;9.02;6.70;;;;;;;;;;5034523;28;20375;-72
2023/05/14 03:10:56;;;;;;;11.55;7.10;;;;;;;;;;5052736;28;20060;-74
2023/05/14 03:13:22;;;;;;;10.55;7.30;;;;;;;;;;5042974;28;20021;-74
2023/05/14 03:15:53;;;;;;;11.95;7.82;;;;;;;;;;5034967;28;20103;-72
2023/05/14 03:18:19;;;;;;;10.93;7.35;;;;;;;;;;5052400;28;20029;-74
2023/05/14 03:20:45;;;;;;;9.60;6.10;;;;;;;;;;5051221;28;20029;-74
2023/05/14 03:23:11;;;;;;;10.38;6.50;;;;;;;;;;5052620;28;20025;-74
2023/05/14 03:25:37;;;;;;;12.75;6.57;;;;;;;;;;5049759;28;20468;-74
2023/05/14 03:28:03;;;;;;;12.05;6.25;;;;;;;;;;5037370;28;20071;-74
2023/05/14 03:30:29;;;;;;;12.65;6.30;;;;;;;;;;5049882;28;20042;-74
2023/05/14 03:32:55;;;;;;;7.75;6.00;;;;;;;;;;5051052;28;20045;-74
2023/05/14 03:35:21;;;;;;;13.68;7.30;;;;;;;;;;5050885;28;20021;-73
2023/05/14 03:37:46;;;;;;;9.00;6.80;;;;;;;;;;5034413;28;20047;-74
2023/05/14 03:40:12;;;;;;;11.32;6.97;;;;;;;;;;5052015;28;20435;-73
2023/05/14 03:42:38;;;;;;;11.35;7.53;;;;;;;;;;5051000;28;20056;-73
2023/05/14 03:45:04;;;;;;;11.20;6.32;;;;;;;;;;5050614;28;20044;-73
2023/05/14 03:47:29;;;;;;;8.88;6.57;;;;;;;;;;5050417;28;20506;-73
2023/05/14 03:49:56;;;;;;;10.90;6.53;;;;;;;;;;5050560;28;20039;-73
2023/05/14 03:52:22;;;;;;;7.43;5.47;;;;;;;;;;5051977;28;20032;-73
2023/05/14 03:54:48;;;;;;;11.70;6.35;;;;;;;;;;5050418;28;20402;-74
2023/05/14 03:57:14;;;;;;;11.75;6.72;;;;;;;;;;5035759;28;20059;-74
2023/05/14 03:59:41;;;;;;;11.85;6.45;;;;;;;;;;5049190;28;20124;-74
2023/05/14 04:02:07;;;;;;;9.32;5.93;;;;;;;;;;5051846;28;20108;-73
2023/05/14 04:04:32;;;;;;;9.02;5.03;;;;;;;;;;5047594;28;20025;-73
2023/05/14 04:06:58;;;;;;;7.43;5.35;;;;;;;;;;5037811;28;20029;-73
2023/05/14 04:09:27;;;;;;;8.10;5.70;;;;;;;;;;5038622;28;20028;-73
2023/05/14 04:11:53;;;;;;;9.13;5.43;;;;;;;;;;5049840;28;20063;-73
2023/05/14 04:14:18;;;;;;;9.30;5.55;;;;;;;;;;5041948;28;20027;-73
2023/05/14 04:16:44;;;;;;;9.25;5.90;;;;;;;;;;5033556;28;20030;-70
2023/05/14 04:19:10;;;;;;;9.48;4.90;;;;;;;;;;5050742;28;20389;-74
2023/05/14 04:21:35;;;;;;;8.95;5.53;;;;;;;;;;5051502;28;20304;-74
2023/05/14 04:24:01;;;;;;;12.60;6.68;;;;;;;;;;5051347;28;20032;-73
2023/05/14 04:26:27;;;;;;;10.18;6.05;;;;;;;;;;5040276;28;20034;-74
2023/05/14 04:28:52;;;;;;;13.50;8.00;;;;;;;;;;5043702;28;20020;-73
2023/05/14 04:31:18;;;;;;;9.68;6.88;;;;;;;;;;5050609;28;20032;-73
2023/05/14 04:33:44;;;;;;;9.50;6.57;;;;;;;;;;5051945;28;20029;-73
2023/05/14 04:36:09;;;;;;;12.35;7.55;;;;;;;;;;5052492;28;20043;-75
2023/05/14 04:38:35;;;;;;;15.30;7.63;;;;;;;;;;5052225;28;20110;-73
2023/05/14 04:41:01;;;;;;;9.75;7.60;;;;;;;;;;5052011;28;20076;-73
2023/05/14 04:43:26;;;;;;;10.05;6.70;;;;;;;;;;5052114;28;20024;-73
2023/05/14 04:45:52;;;;;;;9.45;6.00;;;;;;;;;;5052227;28;20532;-73
2023/05/14 04:48:18;;;;;;;10.55;5.70;;;;;;;;;;5051402;28;20429;-73
2023/05/14 04:50:43;;;;;;;11.35;6.53;;;;;;;;;;5051683;28;20079;-73
2023/05/14 04:53:10;;;;;;;9.82;6.90;;;;;;;;;;5051792;28;20032;-73
2023/05/14 04:55:36;;;;;;;10.43;5.95;;;;;;;;;;5051771;28;20055;-73
2023/05/14 04:58:02;;;;;;;11.05;6.25;;;;;;;;;;5051592;28;20021;-75
2023/05/14 05:00:28;;;;;;;11.30;6.63;;;;;;;;;;5051771;28;20041;-74
2023/05/14 05:02:54;;;;;;;11.10;6.35;;;;;;;;;;5055203;28;20391;-73
2023/05/14 05:05:20;;;;;;;11.43;7.15;;;;;;;;;;5047102;28;20041;-74
2023/05/14 05:07:45;;;;;;;12.68;7.55;;;;;;;;;;5042007;28;20064;-73
2023/05/14 05:10:11;;;;;;;10.25;6.88;;;;;;;;;;5051339;28;20025;-73
2023/05/14 05:12:37;;;;;;;11.77;7.47;;;;;;;;;;5043413;28;20032;-72
2023/05/14 05:15:04;;;;;;;12.07;6.82;;;;;;;;;;5051208;28;20079;-73
2023/05/14 05:17:30;;;;;;;11.32;7.18;;;;;;;;;;5051303;28;20033;-75
2023/05/14 05:19:56;;;;;;;11.00;8.20;;;;;;;;;;5051314;28;20048;-74
2023/05/14 05:22:22;;;;;;;11.57;7.93;;;;;;;;;;5050987;28;20017;-74
2023/05/14 05:24:48;;;;;;;11.05;8.35;;;;;;;;;;5053754;28;20040;-74
2023/05/14 05:27:14;;;;;;;10.50;8.13;;;;;;;;;;5055216;28;20025;-74
2023/05/14 05:29:40;;;;;;;11.48;7.82;;;;;;;;;;5055231;28;20072;-75
2023/05/14 05:32:06;;;;;;;11.32;8.02;;;;;;;;;;5055228;28;20083;-74
2023/05/14 05:34:32;;;;;;;14.07;8.32;;;;;;;;;;5055160;28;20052;-74
2023/05/14 05:36:57;;;;;;;12.93;9.25;;;;;;;;;;5055150;28;20198;-75
2023/05/14 05:39:23;;;;;;;12.52;9.35;;;;;;;;;;5054965;28;20082;-75
2023/05/14 05:41:49;;;;;;;12.40;8.73;;;;;;;;;;5055016;28;20079;-74
2023/05/14 05:44:15;;;;;;;11.38;8.00;;;;;;;;;;5054996;28;20032;-74
2023/05/14 05:46:40;;;;;;;13.82;8.38;;;;;;;;;;5053384;28;20101;-74
2023/05/14 05:49:06;;;;;;;13.77;9.02;;;;;;;;;;5054831;28;20430;-74
2023/05/14 05:51:32;;;;;;;12.77;8.82;;;;;;;;;;5054911;28;20120;-74
2023/05/14 05:53:58;;;;;;;15.35;8.93;;;;;;;;;;5054884;28;20115;-74
2023/05/14 05:56:23;;;;;;;12.25;8.68;;;;;;;;;;5055037;28;20025;-75
2023/05/14 05:58:50;;;;;;;14.07;9.90;;;;;;;;;;5054969;28;20032;-74
2023/05/14 06:01:16;;;;;;;16.63;9.63;;;;;;;;;;5054880;28;20135;-74
2023/05/14 06:03:42;;;;;;;10.43;7.68;;;;;;;;;;5054860;28;20144;-74
2023/05/14 06:06:08;;;;;;;11.20;6.97;;;;;;;;;;5055090;28;20024;-75
2023/05/14 06:08:34;;;;;;;11.38;6.40;;;;;;;;;;5054513;28;20410;-74
2023/05/14 06:10:59;;;;;;;16.63;7.22;;;;;;;;;;5054699;28;20048;-74
2023/05/14 06:13:25;;;;;;;10.93;8.02;;;;;;;;;;5054677;28;20418;-74
2023/05/14 06:15:51;;;;;;;12.48;7.72;;;;;;;;;;5054428;28;20439;-74
2023/05/14 06:18:16;;;;;;;15.48;7.93;;;;;;;;;;5054412;28;20086;-74
2023/05/14 06:20:43;;;;;;;12.27;7.90;;;;;;;;;;5054735;28;20075;-75
2023/05/14 06:23:11;;;;;;;12.10;8.48;;;;;;;;;;5054644;28;20028;-73
2023/05/14 06:25:36;;;;;;;14.43;8.35;;;;;;;;;;5054555;28;20029;-75
2023/05/14 06:28:02;;;;;;;13.73;8.27;;;;;;;;;;5054185;28;20117;-74
2023/05/14 06:30:28;;;;;;;11.60;8.73;;;;;;;;;;5054338;28;20021;-74
2023/05/14 06:32:54;;;;;;;11.85;7.18;;;;;;;;;;5054511;28;20037;-76
2023/05/14 06:35:19;;;;;;;15.77;6.68;;;;;;;;;;5054307;28;20134;-74
2023/05/14 06:37:45;;;;;;;10.93;6.43;;;;;;;;;;5054300;28;20064;-75
2023/05/14 06:40:14;;;;;;;11.02;5.93;;;;;;;;;;5053975;28;20075;-74
2023/05/14 06:42:40;;;;;;;21.75;7.07;;;;;;;;;;5052318;28;20045;-76
2023/05/14 06:45:06;;;;;;;17.83;6.45;;;;;;;;;;5053840;28;20094;-75
2023/05/14 06:47:32;;;;;;;9.43;6.45;;;;;;;;;;5054025;28;20033;-76
2023/05/14 06:49:59;;;;;;;10.15;6.38;;;;;;;;;;5053455;28;20017;-76
2023/05/14 06:52:25;;;;;;;10.93;6.07;;;;;;;;;;5069472;28;20029;-75
2023/05/14 06:54:51;;;;;;;10.00;6.47;;;;;;;;;;5053741;28;20440;-75
2023/05/14 06:57:18;;;;;;;8.70;5.65;;;;;;;;;;5053596;28;20032;-76
2023/05/14 06:59:45;;;;;;;13.95;6.22;;;;;;;;;;5053474;28;20052;-75
2023/05/14 07:02:11;;;;;;;10.10;6.10;;;;;;;;;;5052649;28;20025;-75
2023/05/14 07:04:38;;;;;;;8.40;5.93;;;;;;;;;;5053907;28;20033;-75
2023/05/14 07:07:04;;;;;;;9.60;6.10;;;;;;;;;;5053798;28;20141;-75
2023/05/14 07:09:30;;;;;;;10.48;6.32;;;;;;;;;;5053538;28;20112;-76
2023/05/14 07:11:55;;;;;;;10.80;7.00;;;;;;;;;;5053252;28;20115;-76
2023/05/14 07:14:21;;;;;;;9.00;5.93;;;;;;;;;;5052170;28;20359;-75
2023/05/14 07:16:47;;;;;;;9.75;6.63;;;;;;;;;;5053214;28;20116;-75
2023/05/14 07:19:12;;;;;;;9.40;6.53;;;;;;;;;;5052995;28;20024;-76
2023/05/14 07:21:38;;;;;;;12.63;7.43;;;;;;;;;;5052964;28;20021;-75
2023/05/14 07:24:04;;;;;;;10.88;6.80;;;;;;;;;;5053210;28;20502;-74
2023/05/14 07:26:30;;;;;;;9.82;5.90;;;;;;;;;;5044103;28;20400;-76
2023/05/14 07:28:56;;;;;;;7.03;5.70;;;;;;;;;;5052022;28;20029;-75
2023/05/14 07:31:22;;;;;;;14.93;6.35;;;;;;;;;;5052433;28;20039;-74
2023/05/14 07:33:48;;;;;;;8.35;6.10;;;;;;;;;;5052935;28;20115;-76
2023/05/14 07:36:14;;;;;;;7.97;5.60;;;;;;;;;;5052951;28;20040;-75
2023/05/14 07:38:39;;;;;;;10.35;4.97;;;;;;;;;;5052753;28;20060;-76
2023/05/14 07:41:05;;;;;;;6.65;5.20;;;;;;;;;;5052596;28;20033;-75
2023/05/14 07:43:31;;;;;;;10.98;5.68;;;;;;;;;;5052685;28;20013;-75
2023/05/14 07:45:56;;;;;;;8.80;5.00;;;;;;;;;;5052282;28;20043;-75
2023/05/14 07:48:22;;;;;;;7.68;4.47;;;;;;;;;;5052382;28;20027;-75
2023/05/14 07:50:48;;;;;;;15.90;5.70;;;;;;;;;;5053488;28;20051;-75
2023/05/14 07:53:14;;;;;;;5.40;3.78;;;;;;;;;;5068334;28;20021;-75
2023/05/14 07:55:40;;;;;;;7.50;4.10;;;;;;;;;;5052436;28;20313;-77
2023/05/14 07:58:06;;;;;;;5.80;4.13;;;;;;;;;;5051038;28;20520;-74
2023/05/14 08:00:32;;;;;;;9.93;4.40;;;;;;;;;;5052614;28;20040;-74
2023/05/14 08:02:57;;;;;;;6.97;3.63;;;;;;;;;;5052577;28;20025;-74
2023/05/14 08:05:23;;;;;;;7.90;4.40;;;;;;;;;;5052318;28;20099;-73
2023/05/14 08:07:49;;;;;;;6.53;4.53;;;;;;;;;;5050808;28;20098;-73
2023/05/14 08:10:14;;;;;;;9.40;4.22;;;;;;;;;;5052246;28;20029;-73
2023/05/14 08:12:41;;;;;;;8.38;3.92;;;;;;;;;;5052421;28;20102;-75
2023/05/14 08:15:09;;;;;;;7.60;4.15;;;;;;;;;;5052513;28;20103;-76
2023/05/14 08:17:34;;;;;;;5.10;4.32;;;;;;;;;;5052554;28;20439;-76
2023/05/14 08:20:00;;;;;;;7.95;4.78;;;;;;;;;;5052138;28;20070;-75
2023/05/14 08:22:26;;;;;;;9.80;4.70;;;;;;;;;;5052299;28;20032;-76
2023/05/14 08:24:52;;;;;;;12.50;5.45;;;;;;;;;;5051986;28;20487;-76
2023/05/14 08:27:18;;;;;;;12.15;4.43;;;;;;;;;;5052311;28;20029;-75
2023/05/14 08:29:46;;;;;;;14.60;4.10;;;;;;;;;;5052002;28;20108;-76
2023/05/14 08:32:12;;;;;;;8.48;3.80;;;;;;;;;;5051922;28;20112;-77
2023/05/14 08:34:38;;;;;;;7.90;3.88;;;;;;;;;;5050735;28;20111;-75
2023/05/14 08:37:04;;;;;;;6.25;3.42;;;;;;;;;;5051790;28;20051;-74
2023/05/14 08:39:29;;;;;;;4.57;3.50;;;;;;;;;;5051514;28;20067;-76
2023/05/14 08:41:57;;;;;;;8.20;3.80;;;;;;;;;;5051548;28;20146;-75
2023/05/14 08:44:49;;;;;;;7.47;3.60;;;;;;;;;;5051774;28;20540;-75
2023/05/14 08:47:17;;;;;;;6.28;3.33;;;;;;;;;;5051318;28;20053;-75
2023/05/14 08:49:45;;;;;;;5.63;3.67;;;;;;;;;;5051277;28;20021;-75
2023/05/14 08:52:12;;;;;;;8.90;4.22;;;;;;;;;;5051761;28;20041;-75
2023/05/14 08:54:39;;;;;;;6.40;3.63;;;;;;;;;;5066972;28;20029;-74
2023/05/14 08:57:07;;;;;;;5.43;3.58;;;;;;;;;;5051754;28;20052;-76
2023/05/14 08:59:33;;;;;;;8.95;4.43;;;;;;;;;;5050633;28;20068;-75
2023/05/14 09:02:01;;;;;;;11.40;3.70;;;;;;;;;;5051669;28;20067;-75
2023/05/14 09:04:28;;;;;;;10.27;3.90;;;;;;;;;;5051349;28;20025;-73
2023/05/14 09:06:54;;;;;;;7.72;4.53;;;;;;;;;;5051460;28;20037;-75
2023/05/14 09:09:21;;;;;;;6.65;3.00;;;;;;;;;;5051314;28;20027;-74
2023/05/14 09:11:48;;;;;;;6.25;3.60;;;;;;;;;;5051266;28;20037;-76
2023/05/14 09:14:14;;;;;;;6.50;3.33;;;;;;;;;;5051050;28;20550;-75
2023/05/14 09:16:43;;;;;;;7.03;3.17;;;;;;;;;;5037251;28;20088;-75
2023/05/14 09:19:09;;;;;;;6.30;3.22;;;;;;;;;;5051093;28;20462;-76
2023/05/14 09:21:36;;;;;;;6.82;3.83;;;;;;;;;;5051250;28;20040;-75
2023/05/14 09:24:02;;;;;;;13.15;4.25;;;;;;;;;;5051026;28;20496;-76
2023/05/14 09:26:32;;;;;;;9.25;3.55;;;;;;;;;;5051178;28;20037;-76
2023/05/14 09:29:01;;;;;;;7.20;3.42;;;;;;;;;;5050418;28;20066;-76
2023/05/14 09:31:29;;;;;;;10.88;3.90;;;;;;;;;;5050990;28;20040;-78
2023/05/14 09:33:55;;;;;;;5.85;3.22;;;;;;;;;;5050954;28;20111;-76
2023/05/14 09:36:20;;;;;;;7.55;3.22;;;;;;;;;;5051030;28;20112;-73
2023/05/14 09:38:46;;;;;;;4.78;3.10;;;;;;;;;;5049336;28;20139;-74
2023/05/14 09:41:12;;;;;;;8.75;3.20;;;;;;;;;;5050916;28;20383;-75
2023/05/14 09:43:37;;;;;;;5.63;3.50;;;;;;;;;;5051229;28;20021;-76
2023/05/14 09:46:06;;;;;;;5.97;3.10;;;;;;;;;;5032765;28;20033;-76
2023/05/14 09:48:32;;;;;;;7.75;3.88;;;;;;;;;;5051225;28;20020;-74
2023/05/14 09:50:57;;;;;;;4.95;3.47;;;;;;;;;;5050605;28;20068;-74
2023/05/14 09:53:23;;;;;;;6.15;3.55;;;;;;;;;;5050206;28;20116;-76
2023/05/14 09:55:49;;;;;;;8.60;3.95;;;;;;;;;;5051090;28;20033;-74
2023/05/14 09:58:16;;;;;;;5.75;3.28;;;;;;;;;;5050863;28;20585;-75
2023/05/14 10:00:44;;;;;;;4.90;3.10;;;;;;;;;;5050785;28;20100;-75
2023/05/14 10:03:13;;;;;;;7.53;3.63;;;;;;;;;;5051318;28;20295;-74
2023/05/14 10:05:40;;;;;;;7.25;3.75;;;;;;;;;;5032605;28;20045;-74
2023/05/14 10:08:13;;;;;;;10.23;3.78;;;;;;;;;;5050190;28;20020;-74
2023/05/14 10:10:39;;;;;;;7.68;3.22;;;;;;;;;;5035706;28;20127;-75
2023/05/14 10:13:19;;;;;;;5.70;3.10;;;;;;;;;;5053531;28;20032;-74
2023/05/14 10:16:08;;;;;;;8.93;2.78;;;;;;;;;;5036501;28;20037;-75
2023/05/14 10:18:40;;;;;;;6.90;2.75;;;;;;;;;;5046571;28;20044;-76
2023/05/14 10:21:10;;;;;;;7.47;3.83;;;;;;;;;;5054053;28;20478;-76
2023/05/14 10:23:40;;;;;;;9.57;5.43;;;;;;;;;;5053046;28;20441;-77
2023/05/14 10:26:07;;;;;;;8.65;5.20;;;;;;;;;;5054414;28;20029;-76
2023/05/14 10:28:33;;;;;;;6.32;3.65;;;;;;;;;;5052742;28;20024;-74
2023/05/14 10:30:59;;;;;;;6.07;3.45;;;;;;;;;;5053611;28;20040;-76
2023/05/14 10:33:25;;;;;;;7.18;3.47;;;;;;;;;;5053631;28;20017;-75
2023/05/14 10:36:04;;;;;;;5.20;2.70;;;;;;;;;;5053556;28;20105;-76
2023/05/14 10:38:35;;;;;;;8.00;2.55;;;;;;;;;;5053574;28;20040;-75
2023/05/14 10:41:03;;;;;;;4.13;2.50;;;;;;;;;;5052938;28;20029;-75
2023/05/14 10:43:29;;;;;;;3.70;2.35;;;;;;;;;;5054795;28;20041;-76
2023/05/14 10:45:57;;;;;;;3.47;2.53;;;;;;;;;;5054533;28;20136;-74
2023/05/14 10:48:23;;;;;;;5.35;3.42;;;;;;;;;;5054835;28;20023;-74
2023/05/14 10:50:53;;;;;;;4.40;2.60;;;;;;;;;;5054550;28;20055;-75
2023/05/14 10:53:28;;;;;;;9.00;3.35;;;;;;;;;;5054848;28;20021;-76
2023/05/14 10:55:54;;;;;;;6.85;2.63;;;;;;;;;;5053788;28;20044;-76
2023/05/14 10:58:21;;;;;;;4.57;2.80;;;;;;;;;;5053708;28;20024;-74
2023/05/14 11:00:48;;;;;;;10.05;3.53;;;;;;;;;;5053595;28;20183;-76
2023/05/14 11:03:15;;;;;;;8.60;5.13;;;;;;;;;;5054085;28;20032;-75
2023/05/14 11:05:41;;;;;;;5.95;3.50;;;;;;;;;;5054035;28;20044;-74
2023/05/14 11:08:07;;;;;;;5.30;3.15;;;;;;;;;;5053942;28;20036;-75
2023/05/14 11:10:34;;;;;;;7.32;2.80;;;;;;;;;;5053430;28;20037;-74
2023/05/14 11:13:00;;;;;;;5.15;2.72;;;;;;;;;;5053379;28;20502;-76
2023/05/14 11:15:27;;;;;;;6.95;2.72;;;;;;;;;;5053541;28;20031;-73
2023/05/14 11:17:52;;;;;;;5.32;2.60;;;;;;;;;;5053490;28;20021;-75
2023/05/14 11:20:19;;;;;;;9.30;2.85;;;;;;;;;;5053452;28;20422;-76
2023/05/14 11:22:47;;;;;;;4.13;2.58;;;;;;;;;;5052894;28;20051;-76
2023/05/14 11:25:14;;;;;;;4.03;2.47;;;;;;;;;;5054514;28;20032;-76
2023/05/14 11:27:42;;;;;;;5.75;3.60;;;;;;;;;;5053406;28;20234;-75
2023/05/14 11:30:18;;;;;;;7.72;3.97;;;;;;;;;;5052972;28;20132;-76
2023/05/14 11:32:46;;;;;;;5.78;2.95;;;;;;;;;;5052818;28;20033;-76
2023/05/14 11:35:13;;;;;;;5.60;2.80;;;;;;;;;;5052955;28;20487;-74
2023/05/14 11:37:39;;;;;;;5.28;3.28;;;;;;;;;;5053313;28;20037;-75
2023/05/14 11:40:08;;;;;;;5.25;3.05;;;;;;;;;;5043178;28;20048;-75
2023/05/14 11:42:35;;;;;;;5.40;2.88;;;;;;;;;;5053096;28;20033;-75
2023/05/14 11:45:01;;;;;;;8.43;5.05;;;;;;;;;;5051616;28;20056;-75
2023/05/14 11:47:28;;;;;;;9.70;5.78;;;;;;;;;;5052759;28;20479;-75
2023/05/14 11:49:54;;;;;;;6.57;4.40;;;;;;;;;;5052720;28;20036;-74
2023/05/14 11:52:20;;;;;;;6.72;3.30;;;;;;;;;;5053027;28;20037;-74
2023/05/14 11:54:48;;;;;;;5.85;3.05;;;;;;;;;;5052518;28;20028;-75
2023/05/14 11:57:19;;;;;;;6.32;2.80;;;;;;;;;;5052379;28;20482;-73
2023/05/14 11:59:46;;;;;;;10.00;4.30;;;;;;;;;;5067937;28;20094;-73
2023/05/14 12:02:14;;;;;;;5.60;2.70;;;;;;;;;;5052172;28;20479;-75
2023/05/14 12:04:41;;;;;;;8.93;2.90;;;;;;;;;;5052903;28;20107;-75
2023/05/14 12:07:15;;;;;;;6.35;2.65;;;;;;;;;;5052256;28;20032;-77
2023/05/14 12:09:48;;;;;;;4.53;2.92;;;;;;;;;;5052457;28;20037;-75
2023/05/14 12:12:16;;;;;;;;;;;;;;;;;;5051305;28;20033;-75
2023/05/14 12:14:42;;;;;;;7.47;3.20;;;;;;;;;;5052546;28;19912;-76
2023/05/14 12:17:17;;;;;;;4.65;3.13;;;;;;;;;;5052652;28;20032;-75
2023/05/14 12:19:47;;;;;;;6.35;2.70;;;;;;;;;;5052137;28;20410;-74
2023/05/14 12:22:20;;;;;;;6.00;3.45;;;;;;;;;;5050448;28;20037;-76
2023/05/14 12:24:54;;;;;;;8.27;4.25;;;;;;;;;;5034338;28;20113;-74
2023/05/14 12:27:27;;;;;;;4.80;2.63;;;;;;;;;;5052227;28;20115;-74
2023/05/14 12:30:02;;;;;;;4.82;2.70;;;;;;;;;;5051851;28;20037;-74
2023/05/14 12:32:30;;;;;;;5.38;3.13;;;;;;;;;;5051604;28;20082;-74
2023/05/14 12:34:56;;;;;;;37.45;21.92;;;;;;;;;;5051679;28;20021;-75
2023/05/14 12:37:22;;;;;;;10.93;6.60;;;;;;;;;;5051743;28;20070;-75
2023/05/14 12:39:47;;;;;;;4.85;3.13;;;;;;;;;;5051428;28;20071;-75
2023/05/14 12:42:14;;;;;;;6.03;3.03;;;;;;;;;;5051714;28;20021;-75
2023/05/14 12:44:41;;;;;;;7.18;4.60;;;;;;;;;;5047199;28;20402;-75
2023/05/14 12:47:07;;;;;;;4.28;2.67;;;;;;;;;;5040818;28;20127;-75
2023/05/14 12:49:33;;;;;;;4.40;2.60;;;;;;;;;;5051405;28;20060;-74
2023/05/14 12:51:58;;;;;;;5.28;2.63;;;;;;;;;;5051464;28;20072;-75
2023/05/14 12:54:24;;;;;;;3.58;2.70;;;;;;;;;;5051030;28;20028;-75
2023/05/14 12:56:52;;;;;;;7.28;2.80;;;;;;;;;;5042650;28;20403;-73
2023/05/14 12:59:17;;;;;;;7.40;2.47;;;;;;;;;;5043938;28;20063;-74
2023/05/14 13:01:43;;;;;;;4.28;2.55;;;;;;;;;;5051473;28;20056;-76
2023/05/14 13:04:11;;;;;;;5.28;3.13;;;;;;;;;;5050219;28;20104;-74
2023/05/14 13:06:38;;;;;;;4.28;2.33;;;;;;;;;;5051776;28;20033;-74
2023/05/14 13:09:05;;;;;;;7.68;4.25;;;;;;;;;;5051152;28;20028;-75
2023/05/14 13:11:31;;;;;;;8.88;2.60;;;;;;;;;;5051373;28;20036;-75
2023/05/14 13:13:57;;;;;;;5.68;2.58;;;;;;;;;;5051255;28;20044;-76
2023/05/14 13:16:27;;;;;;;6.93;2.85;;;;;;;;;;5066568;28;20426;-75
2023/05/14 13:18:54;;;;;;;84.32;25.52;;;;;;;;;;5051302;28;20029;-75
2023/05/14 13:21:20;;;;;;;4.10;2.08;;;;;;;;;;5051321;28;20209;-74
2023/05/14 13:23:49;;;;;;;4.63;2.35;;;;;;;;;;5051457;28;20031;-76
2023/05/14 13:26:14;;;;;;;3.88;2.17;;;;;;;;;;5049897;28;20021;-74
2023/05/14 13:28:40;;;;;;;5.45;2.38;;;;;;;;;;5042356;28;20120;-75
2023/05/14 13:31:11;;;;;;;4.00;2.28;;;;;;;;;;5049263;28;20104;-75
2023/05/14 13:33:41;;;;;;;4.97;2.10;;;;;;;;;;5051061;28;20041;-75
2023/05/14 13:36:08;;;;;;;2.40;1.75;;;;;;;;;;5050793;28;20029;-74
2023/05/14 13:38:34;;;;;;;5.32;2.28;;;;;;;;;;5050437;28;20035;-75
2023/05/14 13:41:02;;;;;;;3.38;2.10;;;;;;;;;;5050776;28;20041;-76
2023/05/14 13:43:32;;;;;;;8.50;2.67;;;;;;;;;;5049594;28;20031;-75
2023/05/14 13:45:58;;;;;;;5.13;2.13;;;;;;;;;;5053835;28;20052;-75
2023/05/14 13:48:25;;;;;;;4.28;1.95;;;;;;;;;;5054911;28;20024;-75
2023/05/14 13:50:51;;;;;;;4.00;2.15;;;;;;;;;;5055026;28;20033;-75
2023/05/14 13:53:21;;;;;;;6.80;2.17;;;;;;;;;;5070341;28;20467;-76
2023/05/14 13:55:48;;;;;;;4.20;2.15;;;;;;;;;;5045879;28;20162;-75
2023/05/14 13:58:14;;;;;;;7.47;2.60;;;;;;;;;;5053309;28;20039;-75
2023/05/14 14:00:40;;;;;;;7.05;2.25;;;;;;;;;;5054451;28;20127;-75
2023/05/14 14:03:06;;;;;;;6.18;2.13;;;;;;;;;;5054825;28;20111;-75
2023/05/14 14:05:34;;;;;;;5.40;2.22;;;;;;;;;;5053135;28;20143;-75
2023/05/14 14:07:59;;;;;;;4.82;2.20;;;;;;;;;;5054163;28;20336;-75
2023/05/14 14:10:25;;;;;;;5.50;2.17;;;;;;;;;;5053949;28;20036;-75
2023/05/14 14:12:51;;;;;;;7.97;2.13;;;;;;;;;;5036900;28;20490;-74
2023/05/14 14:15:17;;;;;;;2.75;1.98;;;;;;;;;;5054153;28;20372;-75
2023/05/14 14:17:42;;;;;;;7.05;2.97;;;;;;;;;;5053038;28;20051;-75
2023/05/14 14:20:09;;;;;;;7.55;2.38;;;;;;;;;;5053473;28;20375;-75
2023/05/14 14:22:34;;;;;;;6.15;2.50;;;;;;;;;;5053291;28;20021;-74
2023/05/14 14:25:01;;;;;;;4.53;2.75;;;;;;;;;;5052903;28;20041;-74
2023/05/14 14:27:26;;;;;;;3.92;2.17;;;;;;;;;;5045358;28;20044;-74
2023/05/14 14:29:52;;;;;;;3.05;1.98;;;;;;;;;;5052814;28;20079;-73
2023/05/14 14:32:19;;;;;;;5.00;2.22;;;;;;;;;;5052817;28;20017;-74
2023/05/14 14:34:45;;;;;;;4.20;2.15;;;;;;;;;;5053736;28;20036;-76
2023/05/14 14:37:11;;;;;;;6.75;2.15;;;;;;;;;;5068349;28;20029;-73